Time;durP1;ratioP1;P1;durP2;ratioP2;P2;SDS_P1;SDS_P2;PMS_P1;PMS_P2;Temp;Humidity;BMP_temperature;BMP_pressure;BME280_temperature;BME280_humidity;BME280_pressure;Samples;Min_cycle;Max_cycle;Signal;HPM_P1;HPM_P2
2021/07/12 00:00:17;;;;;;;8.63;4.75;;;;;;;24.90;46.39;94583.69;2963568;40;20138;-82
2021/07/12 00:02:18;;;;;;;;;;;;;;;24.87;46.58;94584.22;2967204;40;20134;-81
2021/07/12 00:04:20;;;;;;;5.13;4.30;;;;;;;24.82;46.34;94584.94;2963400;40;19936;-81
2021/07/12 00:06:22;;;;;;;6.38;4.70;;;;;;;24.77;46.37;94576.84;2967845;40;20096;-80
2021/07/12 00:08:24;;;;;;;7.95;5.35;;;;;;;24.63;46.76;94573.75;2969189;40;20645;-82
2021/07/12 00:10:27;;;;;;;6.13;4.65;;;;;;;24.32;46.90;94577.88;2965465;40;20100;-81
2021/07/12 00:12:29;;;;;;;;;;;;;;;23.94;47.37;94587.53;2967883;40;20084;-82
2021/07/12 00:14:30;;;;;;;5.90;4.95;;;;;;;23.72;48.09;94574.06;2957444;40;19937;-81
2021/07/12 00:16:32;;;;;;;6.28;4.93;;;;;;;23.66;48.11;94588.38;2968842;40;20139;-82
2021/07/12 00:18:34;;;;;;;6.22;4.78;;;;;;;23.69;48.17;94593.28;2964237;40;20056;-81
2021/07/12 00:20:37;;;;;;;5.75;4.40;;;;;;;23.73;48.06;94591.72;2968454;40;20082;-82
2021/07/12 00:22:42;;;;;;;5.90;4.78;;;;;;;23.82;48.41;94582.28;2969433;40;20056;-81
2021/07/12 00:24:44;;;;;;;5.28;4.13;;;;;;;23.92;48.55;94578.94;2967368;40;20153;-82
2021/07/12 00:26:47;;;;;;;6.40;4.60;;;;;;;24.01;48.44;94593.53;2966336;40;20048;-80
2021/07/12 00:28:50;;;;;;;5.38;4.07;;;;;;;24.06;48.54;94590.91;2958098;40;20734;-84
2021/07/12 00:30:52;;;;;;;5.68;4.30;;;;;;;24.10;48.41;94593.91;2960562;40;20539;-83
2021/07/12 00:32:55;;;;;;;6.72;4.68;;;;;;;24.11;48.71;94593.69;2962910;40;20357;-82
2021/07/12 00:34:57;;;;;;;8.02;4.60;;;;;;;24.15;48.56;94598.53;2963150;40;20059;-81
2021/07/12 00:36:59;;;;;;;7.03;4.25;;;;;;;24.15;48.54;94596.66;2967974;40;20197;-81
2021/07/12 00:39:01;;;;;;;5.35;4.35;;;;;;;24.23;48.43;94595.44;2965988;40;20145;-81
2021/07/12 00:41:03;;;;;;;8.77;4.47;;;;;;;24.28;48.35;94598.97;2967131;40;20060;-80
2021/07/12 00:43:05;;;;;;;4.90;4.25;;;;;;;24.30;48.52;94599.53;2963382;40;20044;-83
2021/07/12 00:45:11;;;;;;;5.90;4.35;;;;;;;24.31;48.28;94606.53;2961500;40;20064;-80
2021/07/12 00:47:13;;;;;;;7.55;4.28;;;;;;;24.33;48.56;94593.69;2966008;40;20422;-81
2021/07/12 00:49:15;;;;;;;8.73;4.35;;;;;;;24.36;48.72;94600.44;2968775;40;20128;-80
2021/07/12 00:51:16;;;;;;;6.72;4.35;;;;;;;24.35;48.67;94593.47;2957752;40;20353;-81
2021/07/12 00:53:18;;;;;;;8.82;4.50;;;;;;;24.33;48.64;94593.69;2964383;40;20056;-80
2021/07/12 00:55:44;;;;;;;6.40;4.35;;;;;;;24.23;48.96;94593.56;2956671;40;20156;-82
2021/07/12 00:57:46;;;;;;;7.65;4.60;;;;;;;24.20;48.71;94591.38;2969975;40;20117;-82
2021/07/12 00:59:49;;;;;;;7.40;4.07;;;;;;;24.15;49.03;94599.31;2968981;40;20089;-82
2021/07/12 01:01:51;;;;;;;6.60;4.30;;;;;;;24.15;48.84;94601.19;2973334;40;20052;-81
2021/07/12 01:03:52;;;;;;;8.45;4.88;;;;;;;24.17;49.00;94599.91;2973956;40;20063;-81
2021/07/12 01:05:55;;;;;;;6.45;4.68;;;;;;;24.19;48.67;94594.31;2974318;40;20056;-84
2021/07/12 01:07:58;;;;;;;5.63;4.35;;;;;;;24.12;48.94;94591.81;2969971;40;20045;-82
2021/07/12 01:10:00;;;;;;;6.68;4.63;;;;;;;24.09;49.08;94590.44;2968812;40;20056;-84
2021/07/12 01:12:10;;;;;;;7.05;4.32;;;;;;;24.09;49.12;94595.78;2966490;40;20044;-82
2021/07/12 01:14:29;;;;;;;5.85;4.40;;;;;;;24.12;49.26;94597.16;2966784;40;20458;-82
2021/07/12 01:16:44;;;;;;;4.70;4.20;;;;;;;24.08;49.22;94594.16;2967532;40;20067;-82
2021/07/12 01:18:59;;;;;;;7.88;4.40;;;;;;;23.94;48.27;94584.88;2969388;40;20064;-81
2021/07/12 01:21:24;;;;;;;8.43;5.00;;;;;;;23.73;47.42;94585.59;2965408;40;20181;-68
2021/07/12 01:23:34;;;;;;;5.13;4.53;;;;;;;23.55;47.10;94594.63;2965317;40;20329;-70
2021/07/12 01:26:32;;;;;;;5.22;4.72;;;;;;;23.14;48.22;94600.09;2956254;40;20123;-69
2021/07/12 01:28:52;;;;;;;5.75;4.68;;;;;;;22.77;48.89;94596.97;2935920;40;20253;-68
2021/07/12 01:31:47;;;;;;;7.43;4.60;;;;;;;22.77;49.30;94604.97;2946872;40;20068;-70
2021/07/12 01:33:58;;;;;;;5.97;4.70;;;;;;;22.89;48.85;94603.09;2954934;40;20097;-69
2021/07/12 01:36:23;;;;;;;7.97;4.45;;;;;;;22.98;48.29;94598.16;2958283;40;20061;-69
2021/07/12 01:38:39;;;;;;;6.65;4.75;;;;;;;23.09;47.84;94594.66;2962366;40;20403;-68
2021/07/12 01:41:01;;;;;;;5.40;4.85;;;;;;;23.06;47.33;94597.81;2969954;40;20156;-68
2021/07/12 01:43:12;;;;;;;5.47;4.47;;;;;;;22.87;48.33;94597.97;2966031;40;20061;-69
2021/07/12 01:45:15;;;;;;;6.20;4.53;;;;;;;22.86;48.15;94591.00;2968405;40;20068;-69
2021/07/12 01:47:47;;;;;;;5.57;4.38;;;;;;;22.67;48.66;94600.22;2958509;40;20189;-69
2021/07/12 01:50:03;;;;;;;10.32;4.85;;;;;;;22.35;49.68;94603.34;2962786;40;20055;-69
2021/07/12 01:52:16;;;;;;;6.60;4.53;;;;;;;22.44;49.46;94607.25;2965446;40;20043;-69
2021/07/12 01:54:38;;;;;;;7.05;4.80;;;;;;;22.53;49.22;94610.38;2958159;40;20076;-69
2021/07/12 01:57:02;;;;;;;5.78;4.57;;;;;;;22.61;48.90;94610.00;2966755;40;20423;-68
2021/07/12 01:59:22;;;;;;;7.70;4.78;;;;;;;22.63;49.17;94604.44;2961360;40;20065;-68
2021/07/12 02:01:25;;;;;;;7.20;4.78;;;;;;;22.70;49.58;94605.09;2959713;40;20072;-68
2021/07/12 02:03:28;;;;;;;6.95;5.15;;;;;;;22.74;49.50;94608.94;2962478;40;20133;-69
2021/07/12 02:05:32;;;;;;;6.45;5.00;;;;;;;22.76;49.35;94604.16;2963450;40;20092;-70
2021/07/12 02:07:35;;;;;;;7.53;5.25;;;;;;;22.80;50.00;94605.31;2966792;40;20048;-68
2021/07/12 02:09:38;;;;;;;7.55;4.80;;;;;;;22.82;50.08;94605.91;2949965;40;20049;-69
2021/07/12 02:11:44;;;;;;;6.63;5.10;;;;;;;22.83;50.54;94612.84;2957775;40;20480;-69
2021/07/12 02:13:48;;;;;;;7.03;5.43;;;;;;;22.67;50.96;94613.56;2967038;40;20158;-68
2021/07/12 02:15:52;;;;;;;8.32;6.05;;;;;;;22.40;52.30;94611.44;2962935;40;20052;-68
2021/07/12 02:17:54;;;;;;;6.13;4.90;;;;;;;22.32;52.35;94603.78;2966266;40;20791;-69
2021/07/12 02:19:58;;;;;;;9.57;4.88;;;;;;;22.35;52.34;94610.50;2965620;40;20150;-79
2021/07/12 02:22:01;;;;;;;6.90;5.45;;;;;;;22.37;52.35;94611.91;2966458;40;20130;-80
2021/07/12 02:24:04;;;;;;;6.28;5.22;;;;;;;22.35;52.45;94603.34;2960849;40;20065;-81
2021/07/12 02:26:06;;;;;;;6.32;4.95;;;;;;;22.35;52.22;94607.84;2964451;40;20068;-79
2021/07/12 02:28:09;;;;;;;9.00;5.70;;;;;;;22.44;52.07;94612.59;2971740;40;20043;-79
2021/07/12 02:30:12;;;;;;;7.50;5.25;;;;;;;22.55;52.46;94610.94;2956923;40;20099;-80
2021/07/12 02:32:13;;;;;;;7.50;5.15;;;;;;;22.65;52.40;94618.34;2962492;40;20286;-80
2021/07/12 02:34:16;;;;;;;8.52;5.50;;;;;;;22.72;52.16;94611.03;2962880;40;20405;-81
2021/07/12 02:36:19;;;;;;;8.65;5.18;;;;;;;22.72;51.92;94616.38;2963357;40;20134;-80
2021/07/12 02:38:21;;;;;;;6.80;5.03;;;;;;;22.79;51.58;94616.22;2958344;40;20072;-83
2021/07/12 02:40:23;;;;;;;8.10;5.40;;;;;;;22.79;51.92;94625.03;2970193;40;20129;-79
2021/07/12 02:42:26;;;;;;;8.18;5.88;;;;;;;22.80;52.11;94621.34;2964498;40;20138;-82
2021/07/12 02:44:29;;;;;;;11.65;5.35;;;;;;;22.78;51.87;94623.44;2965870;40;20068;-80
2021/07/12 02:46:31;;;;;;;6.95;5.50;;;;;;;22.79;52.19;94618.91;2969370;40;20526;-80
2021/07/12 02:48:34;;;;;;;8.60;5.50;;;;;;;22.80;51.98;94613.34;2963718;40;20063;-81
2021/07/12 02:50:36;;;;;;;6.38;4.75;;;;;;;22.82;52.33;94608.56;2959388;40;20049;-80
2021/07/12 02:52:43;;;;;;;7.25;5.18;;;;;;;22.80;52.21;94613.34;2968166;40;20060;-80
2021/07/12 02:54:47;;;;;;;6.18;4.85;;;;;;;22.82;52.18;94619.25;2969556;40;20053;-80
2021/07/12 02:56:49;;;;;;;5.75;5.00;;;;;;;22.87;52.14;94615.88;2960384;40;20073;-80
2021/07/12 02:58:51;;;;;;;6.53;4.68;;;;;;;22.89;51.75;94616.44;2968203;40;20049;-68
2021/07/12 03:00:52;;;;;;;8.95;5.50;;;;;;;22.89;51.44;94603.88;2967087;40;20060;-70
2021/07/12 03:02:54;;;;;;;7.05;4.88;;;;;;;22.94;51.54;94610.38;2966650;40;20116;-68
2021/07/12 03:04:56;;;;;;;9.80;4.95;;;;;;;22.90;51.21;94608.16;2963696;40;20134;-69
2021/07/12 03:06:59;;;;;;;7.57;5.35;;;;;;;22.88;51.29;94612.94;2964469;40;20064;-70
2021/07/12 03:09:06;;;;;;;6.88;5.35;;;;;;;22.83;51.36;94612.03;2952413;40;20465;-69
2021/07/12 03:11:09;;;;;;;8.95;5.70;;;;;;;22.79;51.16;94609.03;2958913;40;20145;-67
2021/07/12 03:13:15;;;;;;;10.95;5.65;;;;;;;22.80;51.36;94609.81;2958389;40;20081;-68
2021/07/12 03:15:39;;;;;;;6.40;5.45;;;;;;;22.79;51.89;94611.69;2958470;40;20037;-69
2021/07/12 03:17:51;;;;;;;9.85;6.03;;;;;;;22.74;51.46;94616.13;2960751;40;20055;-69
2021/07/12 03:19:56;;;;;;;11.07;6.20;;;;;;;22.78;51.71;94618.09;2951392;40;20079;-68
2021/07/12 03:22:00;;;;;;;8.80;5.75;;;;;;;22.70;51.30;94615.78;2964553;40;20397;-69
2021/07/12 03:24:02;;;;;;;9.75;5.70;;;;;;;22.57;51.89;94611.53;2962097;40;20053;-69
2021/07/12 03:26:06;;;;;;;8.13;5.90;;;;;;;22.36;52.88;94620.97;2965061;40;20047;-70
2021/07/12 03:28:08;;;;;;;6.90;5.22;;;;;;;21.67;54.27;94618.84;2951648;40;20417;-69
2021/07/12 03:30:11;;;;;;;8.00;5.40;;;;;;;21.49;54.98;94616.28;2964537;40;20146;-69
2021/07/12 03:32:13;;;;;;;10.85;6.35;;;;;;;21.60;54.98;94612.00;2954634;40;20052;-71
2021/07/12 03:34:16;;;;;;;10.40;5.97;;;;;;;21.77;54.38;94614.78;2965844;40;20160;-69
2021/07/12 03:36:19;;;;;;;8.68;5.43;;;;;;;21.93;54.18;94615.97;2961158;40;20064;-68
2021/07/12 03:38:22;;;;;;;12.52;6.20;;;;;;;21.84;54.40;94618.16;2958518;40;20053;-68
2021/07/12 03:40:24;;;;;;;6.80;5.32;;;;;;;21.94;54.12;94610.41;2966196;40;20062;-68
2021/07/12 03:42:26;;;;;;;8.15;5.95;;;;;;;22.06;53.63;94613.88;2964375;40;20134;-68
2021/07/12 03:44:28;;;;;;;9.60;6.35;;;;;;;22.21;53.24;94612.59;2961219;40;20432;-70
2021/07/12 03:46:29;;;;;;;9.38;6.00;;;;;;;22.33;52.80;94616.09;2961977;40;20056;-69
2021/07/12 03:48:42;;;;;;;7.47;5.80;;;;;;;22.48;52.65;94618.28;2959367;40;20061;-69
2021/07/12 03:50:46;;;;;;;7.18;6.05;;;;;;;22.55;52.41;94618.97;2965218;40;20047;-70
2021/07/12 03:52:50;;;;;;;9.15;5.65;;;;;;;22.64;52.19;94614.06;2958237;40;20365;-70
2021/07/12 03:54:51;;;;;;;8.30;5.90;;;;;;;22.72;51.94;94619.03;2946107;40;20087;-71
2021/07/12 03:56:53;;;;;;;7.93;5.68;;;;;;;22.81;51.89;94616.81;2957575;40;20064;-70
2021/07/12 03:58:55;;;;;;;8.48;6.22;;;;;;;22.88;51.55;94614.78;2967170;40;20064;-69
2021/07/12 04:00:56;;;;;;;10.63;5.57;;;;;;;22.99;51.36;94623.81;2966382;40;20060;-82
2021/07/12 04:02:58;;;;;;;8.45;6.03;;;;;;;22.97;51.76;94618.69;2967908;40;20150;-81
2021/07/12 04:05:00;;;;;;;13.70;6.40;;;;;;;22.79;51.95;94629.59;2967532;40;20157;-82
2021/07/12 04:07:02;;;;;;;9.10;6.40;;;;;;;22.49;52.35;94628.72;2968312;40;20047;-80
2021/07/12 04:09:04;;;;;;;9.05;6.82;;;;;;;22.16;53.40;94623.16;2967351;40;20389;-70
2021/07/12 04:11:05;;;;;;;12.10;7.10;;;;;;;21.55;54.96;94622.53;2965567;40;20051;-69
2021/07/12 04:13:08;;;;;;;9.98;6.68;;;;;;;21.43;55.66;94622.50;2960722;40;20264;-68
2021/07/12 04:15:12;;;;;;;10.52;6.97;;;;;;;21.56;55.85;94626.84;2962994;40;20109;-70
2021/07/12 04:17:14;;;;;;;9.93;6.18;;;;;;;21.74;55.61;94628.59;2964804;40;20048;-69
2021/07/12 04:19:15;;;;;;;10.88;7.28;;;;;;;21.93;55.21;94627.44;2960659;40;20156;-69
2021/07/12 04:21:17;;;;;;;12.90;7.53;;;;;;;22.17;54.27;94627.44;2966106;40;20080;-69
2021/07/12 04:23:19;;;;;;;13.95;7.07;;;;;;;22.39;54.09;94633.84;2964294;40;20410;-71
2021/07/12 04:25:21;;;;;;;13.23;7.28;;;;;;;22.55;53.59;94637.66;2966731;40;20103;-68
2021/07/12 04:27:23;;;;;;;8.55;6.50;;;;;;;22.68;53.43;94634.72;2961662;40;20074;-69
2021/07/12 04:29:24;;;;;;;12.60;7.32;;;;;;;22.81;53.63;94640.84;2964691;40;20413;-68
2021/07/12 04:31:26;;;;;;;9.65;6.93;;;;;;;22.92;53.05;94644.53;2966922;40;20294;-70
2021/07/12 04:33:28;;;;;;;10.80;7.60;;;;;;;23.01;53.05;94646.59;2964504;40;20152;-70
2021/07/12 04:35:30;;;;;;;11.70;7.57;;;;;;;23.09;53.21;94642.75;2961933;40;20252;-69
2021/07/12 04:37:32;;;;;;;11.00;7.38;;;;;;;23.18;52.60;94640.50;2966450;40;20138;-70
2021/07/12 04:39:34;;;;;;;9.13;7.18;;;;;;;23.20;52.40;94636.53;2957864;40;20125;-68
2021/07/12 04:41:37;;;;;;;10.68;7.10;;;;;;;23.26;52.63;94640.94;2966148;40;20138;-70
2021/07/12 04:43:38;;;;;;;10.75;7.55;;;;;;;23.20;53.09;94639.22;2966158;40;20064;-68
2021/07/12 04:45:40;;;;;;;17.08;7.75;;;;;;;23.13;53.37;94629.72;2957328;40;20449;-71
2021/07/12 04:47:42;;;;;;;10.43;7.43;;;;;;;23.11;53.14;94637.97;2952568;40;20134;-69
2021/07/12 04:49:44;;;;;;;11.57;7.22;;;;;;;23.12;53.33;94639.59;2965642;40;20094;-68
2021/07/12 04:51:46;;;;;;;13.15;7.40;;;;;;;23.15;53.30;94636.47;2960684;40;20079;-69
2021/07/12 04:53:48;;;;;;;13.65;7.72;;;;;;;23.23;53.19;94641.41;2965512;40;20408;-69
2021/07/12 04:55:49;;;;;;;10.98;8.20;;;;;;;23.29;52.73;94635.09;2957748;40;20121;-70
2021/07/12 04:57:51;;;;;;;15.48;8.05;;;;;;;22.99;53.71;94639.84;2965945;40;20132;-69
2021/07/12 04:59:53;;;;;;;13.20;8.27;;;;;;;22.32;55.42;94637.69;2962854;40;20473;-68
2021/07/12 05:01:55;;;;;;;12.35;8.63;;;;;;;22.38;55.49;94639.41;2964053;40;20156;-69
2021/07/12 05:03:57;;;;;;;12.52;7.40;;;;;;;21.91;56.56;94636.72;2965395;40;20063;-68
2021/07/12 05:05:59;;;;;;;14.25;8.52;;;;;;;21.63;57.31;94638.19;2956910;40;20168;-69
2021/07/12 05:08:01;;;;;;;18.02;8.98;;;;;;;21.67;57.68;94639.34;2961184;40;20080;-72
2021/07/12 05:10:49;;;;;;;12.27;8.63;;;;;;;21.86;57.07;94630.22;2966167;40;20438;-68
2021/07/12 05:12:51;;;;;;;11.40;7.95;;;;;;;22.11;56.71;94631.84;2964998;40;20071;-69
2021/07/12 05:14:52;;;;;;;12.18;7.75;;;;;;;22.35;56.02;94638.03;2965212;40;20134;-68
2021/07/12 05:16:54;;;;;;;12.43;7.60;;;;;;;22.53;55.70;94641.59;2963850;40;20243;-69
2021/07/12 05:18:56;;;;;;;13.82;7.72;;;;;;;22.28;55.91;94630.16;2964671;40;20145;-69
2021/07/12 05:20:57;;;;;;;14.90;7.55;;;;;;;22.29;56.25;94639.75;2965684;40;20064;-69
2021/07/12 05:22:59;;;;;;;9.30;7.30;;;;;;;22.25;56.33;94640.47;2963658;40;20125;-69
2021/07/12 05:25:03;;;;;;;12.50;7.80;;;;;;;22.08;56.57;94646.47;2964546;40;20060;-69
2021/07/12 05:27:05;;;;;;;12.77;8.13;;;;;;;21.92;57.15;94641.84;2966791;40;20103;-70
2021/07/12 05:29:07;;;;;;;10.65;7.85;;;;;;;21.93;56.78;94637.31;2965883;40;20168;-70
2021/07/12 05:31:09;;;;;;;11.15;8.07;;;;;;;22.03;56.90;94641.03;2966339;40;20117;-71
2021/07/12 05:33:11;;;;;;;13.13;8.05;;;;;;;22.12;56.45;94636.16;2965432;40;20084;-69
2021/07/12 05:35:12;;;;;;;10.27;7.60;;;;;;;22.37;56.19;94638.59;2962236;40;20072;-71
2021/07/12 05:37:14;;;;;;;15.23;8.27;;;;;;;22.38;55.55;94644.75;2959479;40;20082;-70
2021/07/12 05:39:16;;;;;;;11.95;7.90;;;;;;;22.49;55.54;94639.38;2963096;40;20061;-69
2021/07/12 05:41:18;;;;;;;9.70;7.25;;;;;;;22.72;54.59;94645.75;2965485;40;20053;-68
2021/07/12 05:43:19;;;;;;;9.13;7.57;;;;;;;22.90;54.33;94642.88;2966067;40;20056;-69
2021/07/12 05:45:21;;;;;;;11.73;7.97;;;;;;;23.15;53.69;94644.47;2951654;40;20572;-69
2021/07/12 05:47:23;;;;;;;12.10;7.93;;;;;;;23.25;53.29;94642.00;2964572;40;20403;-71
2021/07/12 05:49:25;;;;;;;12.75;7.63;;;;;;;23.46;52.70;94643.16;2950015;40;20061;-69
2021/07/12 05:51:27;;;;;;;14.75;7.68;;;;;;;23.68;52.25;94648.63;2962531;40;20041;-68
2021/07/12 05:53:29;;;;;;;10.93;7.93;;;;;;;23.86;51.71;94647.59;2964029;40;20044;-70
2021/07/12 05:55:31;;;;;;;12.07;7.82;;;;;;;23.96;51.21;94644.25;2961151;40;20423;-71
2021/07/12 05:57:33;;;;;;;12.20;8.27;;;;;;;23.62;52.34;94646.91;2966035;40;20137;-68
2021/07/12 05:59:36;;;;;;;12.82;8.48;;;;;;;23.43;53.00;94646.31;2959206;40;20068;-71
2021/07/12 06:01:38;;;;;;;14.00;8.50;;;;;;;23.20;53.47;94652.56;2966129;40;20081;-69
2021/07/12 06:03:44;;;;;;;11.23;8.70;;;;;;;22.94;53.91;94643.22;2965536;40;20048;-70
2021/07/12 06:05:46;;;;;;;11.27;8.18;;;;;;;23.03;54.36;94649.03;2965604;40;20041;-68
2021/07/12 06:07:48;;;;;;;14.77;8.27;;;;;;;23.13;53.69;94651.13;2961646;40;20145;-68
2021/07/12 06:09:50;;;;;;;11.13;7.07;;;;;;;23.39;53.29;94660.41;2961100;40;20106;-68
2021/07/12 06:11:51;;;;;;;11.75;8.88;;;;;;;23.45;53.06;94654.91;2963196;40;20761;-69
2021/07/12 06:13:53;;;;;;;16.85;8.38;;;;;;;23.42;52.92;94652.69;2963830;40;20435;-72
2021/07/12 06:15:55;;;;;;;11.27;7.93;;;;;;;23.62;52.70;94652.25;2966360;40;20103;-70
2021/07/12 06:17:57;;;;;;;12.68;7.78;;;;;;;23.74;52.06;94651.38;2961742;40;20168;-69
2021/07/12 06:19:59;;;;;;;17.25;9.00;;;;;;;23.51;52.84;94650.44;2965502;40;20095;-69
2021/07/12 06:22:01;;;;;;;11.25;7.80;;;;;;;23.54;52.80;94652.66;2964002;40;20344;-70
2021/07/12 06:24:03;;;;;;;13.10;8.50;;;;;;;23.61;52.63;94647.94;2967433;40;20611;-70
2021/07/12 06:26:05;;;;;;;11.88;7.22;;;;;;;23.85;52.12;94653.19;2967006;40;20420;-71
2021/07/12 06:28:08;;;;;;;13.73;7.65;;;;;;;23.92;51.73;94656.53;2966537;40;20063;-71
2021/07/12 06:30:11;;;;;;;12.15;7.32;;;;;;;23.73;52.06;94660.47;2966980;40;20036;-69
2021/07/12 06:32:12;;;;;;;17.88;8.23;;;;;;;23.68;52.83;94656.66;2970671;40;20079;-70
2021/07/12 06:34:14;;;;;;;14.07;7.80;;;;;;;23.55;52.30;94653.47;2960499;40;20160;-72
2021/07/12 06:36:16;;;;;;;17.38;8.18;;;;;;;23.49;53.09;94652.56;2964842;40;20052;-70
2021/07/12 06:38:17;;;;;;;11.13;7.53;;;;;;;23.60;52.92;94654.38;2966870;40;20434;-69
2021/07/12 06:40:20;;;;;;;10.30;7.53;;;;;;;23.70;52.25;94659.91;2970282;40;20084;-69
2021/07/12 06:42:22;;;;;;;11.00;7.57;;;;;;;23.91;51.58;94663.72;2959364;40;20155;-70
2021/07/12 06:44:24;;;;;;;12.18;7.95;;;;;;;23.90;51.70;94659.44;2966474;40;20205;-71
2021/07/12 06:46:29;;;;;;;13.85;8.60;;;;;;;23.84;51.57;94657.72;2963058;40;20413;-69
2021/07/12 06:48:31;;;;;;;9.48;8.10;;;;;;;23.99;51.58;94643.78;2963889;40;20537;-69
2021/07/12 06:50:33;;;;;;;16.85;7.55;;;;;;;24.26;51.00;94640.44;2958153;40;20130;-68
2021/07/12 06:52:35;;;;;;;13.73;7.80;;;;;;;24.56;50.27;94642.75;2966876;40;20048;-69
2021/07/12 06:54:37;;;;;;;13.32;7.35;;;;;;;24.81;49.71;94642.28;2967209;40;20134;-68
2021/07/12 06:56:38;;;;;;;17.65;8.63;;;;;;;24.79;49.61;94644.38;2956932;40;20050;-69
2021/07/12 06:58:41;;;;;;;15.13;7.78;;;;;;;24.69;49.72;94641.56;2965293;40;20077;-69
2021/07/12 07:00:43;;;;;;;17.25;10.07;;;;;;;24.80;49.35;94638.00;2953026;40;20406;-72
2021/07/12 07:02:45;;;;;;;18.02;8.45;;;;;;;25.06;48.87;94635.59;2950484;40;20045;-70
2021/07/12 07:04:46;;;;;;;14.05;7.28;;;;;;;25.31;48.35;94641.25;2962184;40;20048;-70
2021/07/12 07:06:48;;;;;;;18.45;8.30;;;;;;;25.23;48.42;94646.25;2962413;40;20119;-70
2021/07/12 07:08:50;;;;;;;17.27;8.55;;;;;;;24.96;48.66;94644.34;2965221;40;20432;-70
2021/07/12 07:10:51;;;;;;;9.70;7.68;;;;;;;25.11;48.59;94646.38;2960679;40;20052;-69
2021/07/12 07:12:53;;;;;;;12.27;7.57;;;;;;;25.10;48.38;94642.91;2965484;40;20055;-70
2021/07/12 07:14:55;;;;;;;11.73;7.30;;;;;;;25.25;48.37;94644.97;2966798;40;20081;-70
2021/07/12 07:16:57;;;;;;;12.98;7.88;;;;;;;25.38;47.93;94641.03;2954580;40;20053;-82
2021/07/12 07:18:58;;;;;;;11.20;7.93;;;;;;;25.52;47.68;94641.47;2966521;40;20052;-82
2021/07/12 07:21:00;;;;;;;11.27;7.50;;;;;;;25.53;47.38;94641.22;2968931;40;20084;-82
2021/07/12 07:23:02;;;;;;;12.63;8.13;;;;;;;25.78;47.44;94642.50;2968682;40;20304;-85
2021/07/12 07:25:05;;;;;;;11.18;7.63;;;;;;;25.93;46.55;94644.53;2969975;40;20065;-83
2021/07/12 07:27:13;;;;;;;11.55;7.30;;;;;;;25.81;46.32;94643.84;2968915;40;20092;-83
2021/07/12 07:29:15;;;;;;;13.57;7.57;;;;;;;25.63;46.94;94629.75;2971293;40;20402;-82
2021/07/12 07:31:18;;;;;;;16.42;7.40;;;;;;;25.87;46.55;94634.78;2968837;40;20451;-83
2021/07/12 07:33:21;;;;;;;11.88;7.40;;;;;;;26.09;46.02;94640.06;2969973;40;20044;-83
2021/07/12 07:35:23;;;;;;;14.57;6.95;;;;;;;26.28;45.87;94635.91;2968909;40;20055;-84
2021/07/12 07:37:25;;;;;;;12.20;7.45;;;;;;;26.37;45.12;94636.22;2959991;40;20437;-84
2021/07/12 07:39:27;;;;;;;10.90;6.82;;;;;;;26.55;45.35;94637.69;2961133;40;20144;-69
2021/07/12 07:41:49;;;;;;;11.10;6.90;;;;;;;26.65;44.71;94636.97;2962899;40;20333;-70
2021/07/12 07:43:51;;;;;;;15.30;7.97;;;;;;;26.69;44.57;94635.38;2959673;40;20061;-69
2021/07/12 07:45:52;;;;;;;15.18;9.48;;;;;;;26.68;44.30;94631.06;2965401;40;20113;-69
2021/07/12 07:47:54;;;;;;;13.93;6.82;;;;;;;26.59;43.78;94624.56;2962291;40;20057;-68
2021/07/12 07:49:56;;;;;;;10.57;6.97;;;;;;;26.60;43.57;94631.56;2962235;40;20049;-70
2021/07/12 07:51:58;;;;;;;13.00;6.35;;;;;;;26.72;43.49;94630.28;2965416;40;20096;-70
2021/07/12 07:54:00;;;;;;;6.70;5.68;;;;;;;27.00;43.35;94636.31;2965741;40;20057;-70
2021/07/12 07:56:02;;;;;;;7.78;5.78;;;;;;;27.20;42.05;94630.19;2966700;40;20145;-69
2021/07/12 07:58:05;;;;;;;45.65;33.05;;;;;;;27.42;42.22;94642.63;2965829;40;20128;-70
2021/07/12 08:00:12;;;;;;;13.83;6.50;;;;;;;27.40;42.17;94634.03;2958462;40;20060;-70
2021/07/12 08:02:14;;;;;;;9.60;6.65;;;;;;;26.74;43.17;94633.53;2966719;40;20494;-69
2021/07/12 08:04:23;;;;;;;7.90;5.78;;;;;;;26.65;43.47;94628.91;2965777;40;20063;-70
2021/07/12 08:06:25;;;;;;;10.90;5.47;;;;;;;26.43;43.41;94632.50;2958167;40;20053;-69
2021/07/12 08:08:27;;;;;;;7.60;5.57;;;;;;;26.54;43.00;94618.09;2966538;40;20060;-69
2021/07/12 08:10:30;;;;;;;8.68;5.63;;;;;;;26.74;43.69;94622.78;2967065;40;20044;-69
2021/07/12 08:12:32;;;;;;;;;;;;;;;27.08;42.05;94621.53;2966964;40;20064;-71
2021/07/12 08:14:34;;;;;;;8.82;5.72;;;;;;;27.18;41.43;94624.25;2956801;40;19940;-70
2021/07/12 08:16:36;;;;;;;8.15;5.40;;;;;;;27.41;41.45;94630.28;2963295;40;20148;-69
2021/07/12 08:18:38;;;;;;;9.20;5.82;;;;;;;27.57;41.16;94623.81;2965955;40;20071;-69
2021/07/12 08:20:40;;;;;;;9.02;5.72;;;;;;;27.75;40.98;94620.63;2967268;40;20143;-69
2021/07/12 08:22:42;;;;;;;8.20;5.45;;;;;;;27.71;41.22;94626.81;2961531;40;20411;-70
2021/07/12 08:24:44;;;;;;;7.32;5.20;;;;;;;27.83;40.00;94624.66;2958244;40;20059;-69
2021/07/12 08:26:45;;;;;;;7.95;5.15;;;;;;;27.96;39.43;94631.41;2966006;40;20047;-68
2021/07/12 08:28:47;;;;;;;7.68;4.93;;;;;;;27.61;39.26;94619.53;2962450;40;20056;-70
2021/07/12 08:30:53;;;;;;;6.22;4.28;;;;;;;27.63;39.04;94625.44;2953956;40;20340;-70
2021/07/12 08:32:55;;;;;;;7.82;5.32;;;;;;;27.69;38.51;94627.06;2961871;40;20675;-70
2021/07/12 08:34:56;;;;;;;7.57;5.03;;;;;;;27.49;39.26;94625.19;2967350;40;20417;-69
2021/07/12 08:36:58;;;;;;;7.10;4.85;;;;;;;27.52;39.19;94626.53;2967496;40;20304;-69
2021/07/12 08:39:00;;;;;;;8.10;5.28;;;;;;;27.64;38.69;94627.09;2962075;40;20205;-68
2021/07/12 08:41:02;;;;;;;8.18;4.88;;;;;;;27.73;37.48;94622.78;2967203;40;20083;-70
2021/07/12 08:43:03;;;;;;;9.85;5.57;;;;;;;27.87;37.98;94622.25;2957205;40;20057;-70
2021/07/12 08:45:07;;;;;;;7.13;5.18;;;;;;;27.91;36.96;94620.66;2966845;40;20052;-68
2021/07/12 08:47:08;;;;;;;7.88;5.22;;;;;;;28.08;37.54;94621.19;2966645;40;20413;-69
2021/07/12 08:49:10;;;;;;;19.50;5.45;;;;;;;28.22;37.53;94620.63;2964081;40;20060;-70
2021/07/12 08:51:13;;;;;;;14.98;5.32;;;;;;;28.33;36.59;94619.50;2959015;40;20077;-69
2021/07/12 08:53:15;;;;;;;6.82;4.22;;;;;;;27.99;35.48;94625.50;2960294;40;20084;-68
2021/07/12 08:55:17;;;;;;;9.27;4.68;;;;;;;27.90;35.54;94616.34;2958874;40;20136;-69
2021/07/12 08:57:19;;;;;;;11.93;4.68;;;;;;;28.05;35.72;94621.72;2965378;40;20052;-69
2021/07/12 08:59:40;;;;;;;11.52;4.72;;;;;;;28.10;35.79;94623.59;2960449;40;20068;-68
2021/07/12 09:01:42;;;;;;;6.43;4.15;;;;;;;28.13;34.26;94615.78;2961754;40;20053;-69
2021/07/12 09:03:50;;;;;;;13.85;5.15;;;;;;;27.92;35.14;94619.56;2963101;40;20048;-70
2021/07/12 09:06:12;;;;;;;;;;;;;;;27.97;34.79;94623.06;2958923;40;20044;-70
2021/07/12 09:08:32;;;;;;;8.23;4.50;;;;;;;27.49;35.53;94627.03;2960941;40;20251;-70
2021/07/12 09:10:34;;;;;;;14.48;10.45;;;;;;;27.89;35.54;94620.13;2961609;40;20064;-69
2021/07/12 09:12:45;;;;;;;8.77;4.68;;;;;;;28.01;34.32;94620.66;2965009;40;20305;-69
2021/07/12 09:15:08;;;;;;;11.60;4.25;;;;;;;28.40;33.80;94614.66;2952047;40;20068;-69
2021/07/12 09:17:10;;;;;;;8.20;4.35;;;;;;;28.71;33.32;94610.00;2959287;40;20057;-82
2021/07/12 09:19:17;;;;;;;12.00;5.15;;;;;;;28.22;34.93;94615.22;2966458;40;20072;-70
2021/07/12 09:21:18;;;;;;;7.25;4.20;;;;;;;28.00;35.63;94620.91;2965137;40;20316;-70
2021/07/12 09:23:21;;;;;;;7.65;4.47;;;;;;;28.36;34.75;94606.31;2966803;40;20060;-69
2021/07/12 09:25:28;;;;;;;;;;;;;;;28.52;34.34;94611.69;2958725;40;20532;-71
2021/07/12 09:27:31;;;;;;;12.27;5.40;;;;;;;28.26;34.55;94616.31;2957003;40;20006;-70
2021/07/12 09:29:36;;;;;;;6.90;4.57;;;;;;;28.54;34.10;94613.03;2965837;40;20173;-71
2021/07/12 09:31:38;;;;;;;21.50;5.47;;;;;;;28.61;34.15;94615.47;2965500;40;20424;-69
2021/07/12 09:33:50;;;;;;;17.23;5.82;;;;;;;28.36;34.13;94614.41;2956149;40;20096;-71
2021/07/12 09:36:16;;;;;;;10.80;4.97;;;;;;;28.33;33.04;94619.50;2962678;40;20076;-69
2021/07/12 09:38:29;;;;;;;8.15;4.35;;;;;;;28.01;34.70;94623.34;2954599;40;20047;-69
2021/07/12 09:40:31;;;;;;;8.60;4.40;;;;;;;28.36;33.86;94624.38;2965513;40;20096;-71
2021/07/12 09:42:34;;;;;;;9.30;4.45;;;;;;;28.58;33.73;94608.72;2965766;40;20047;-70
2021/07/12 09:44:44;;;;;;;13.27;5.10;;;;;;;28.98;33.31;94614.25;2957336;40;20056;-68